createdAt,value
2018-11-14T00:00:31.477Z,73.18
2018-11-14T00:03:00.948Z,73.56
2018-11-14T00:05:29.389Z,73.22
2018-11-14T00:07:57.757Z,73.59
2018-11-14T00:10:26.049Z,73.45
2018-11-14T00:12:54.290Z,73.41
2018-11-14T00:15:23.925Z,73.51
2018-11-14T00:17:52.580Z,73.12
2018-11-14T00:20:20.843Z,73.74
2018-11-14T00:22:49.983Z,73.38
2018-11-14T00:25:18.242Z,73.66
2018-11-14T00:27:46.576Z,73.30
2018-11-14T00:30:23.442Z,73.37
2018-11-14T00:32:51.732Z,73.31
2018-11-14T00:35:20.032Z,73.61
2018-11-14T00:37:48.757Z,73.70
2018-11-14T00:40:18.145Z,73.02
2018-11-14T00:42:46.973Z,73.71
2018-11-14T00:45:16.617Z,73.67
2018-11-14T00:47:46.335Z,74.01
2018-11-14T00:50:15.537Z,73.97
2018-11-14T00:52:44.591Z,73.95
2018-11-14T00:55:16.251Z,73.96
2018-11-14T00:57:45.808Z,74.00
2018-11-14T01:00:16.978Z,73.94
2018-11-14T01:02:45.541Z,74.12
2018-11-14T01:05:14.609Z,74.37
2018-11-14T01:07:42.861Z,74.00
2018-11-14T01:10:12.921Z,74.35
2018-11-14T01:12:41.481Z,74.56
2018-11-14T01:15:15.080Z,74.48
2018-11-14T01:17:46.422Z,74.59
2018-11-14T01:20:15.964Z,74.48
2018-11-14T01:22:44.625Z,74.51
2018-11-14T01:25:13.933Z,74.64
2018-11-14T01:27:42.428Z,74.43
2018-11-14T01:30:16.618Z,75.12
2018-11-14T01:32:45.864Z,74.86
2018-11-14T01:35:14.719Z,74.59
2018-11-14T01:37:43.005Z,74.87
2018-11-14T01:40:19.025Z,74.84
2018-11-14T01:42:52.553Z,74.72
2018-11-14T01:45:20.880Z,75.19
2018-11-14T01:47:49.316Z,75.16
2018-11-14T01:50:17.657Z,75.26
2018-11-14T01:52:45.946Z,75.49
2018-11-14T01:55:16.287Z,75.33
2018-11-14T01:57:44.562Z,75.34
2018-11-14T02:00:14.125Z,75.47
2018-11-14T02:02:42.356Z,75.18
2018-11-14T02:05:11.234Z,75.23
2018-11-14T02:07:39.547Z,75.53
2018-11-14T02:10:09.489Z,75.54
2018-11-14T02:12:38.122Z,75.68
2018-11-14T02:15:07.954Z,75.48
2018-11-14T02:17:36.514Z,75.53
2018-11-14T02:20:05.958Z,75.42
2018-11-14T02:22:34.250Z,75.49
2018-11-14T02:25:02.475Z,75.51
2018-11-14T02:27:30.718Z,75.46
2018-11-14T02:29:58.971Z,75.63
2018-11-14T02:32:27.225Z,75.68
2018-11-14T02:34:55.457Z,75.44
2018-11-14T02:37:23.744Z,75.74
2018-11-14T02:39:51.978Z,75.72
2018-11-14T02:42:20.209Z,76.13
2018-11-14T02:44:48.469Z,75.79
2018-11-14T02:47:16.746Z,75.95
2018-11-14T02:49:45.084Z,76.09
2018-11-14T02:52:13.338Z,75.87
2018-11-14T02:54:41.603Z,75.12
2018-11-14T02:57:09.838Z,75.99
2018-11-14T02:59:38.110Z,76.32
2018-11-14T03:02:06.855Z,75.92
2018-11-14T03:04:35.209Z,76.34
2018-11-14T03:07:03.676Z,76.13
2018-11-14T03:09:31.937Z,76.48
2018-11-14T03:12:00.296Z,76.26
2018-11-14T03:14:28.563Z,76.40
2018-11-14T03:16:57.447Z,76.63
2018-11-14T03:19:26.451Z,76.64
2018-11-14T03:24:30.126Z,77.03
2018-11-14T03:26:58.381Z,76.89
2018-11-14T03:29:26.622Z,76.78
2018-11-14T03:31:54.900Z,76.43
2018-11-14T03:34:23.141Z,76.51
2018-11-14T03:36:51.389Z,76.57
2018-11-14T03:39:19.616Z,76.61
2018-11-14T03:41:47.889Z,76.86
2018-11-14T03:44:16.197Z,76.18
2018-11-14T03:49:37.767Z,76.49
2018-11-14T03:52:06.682Z,76.15
2018-11-14T03:54:35.971Z,76.43
2018-11-14T03:57:04.219Z,76.55
2018-11-14T03:59:32.477Z,76.63
2018-11-14T04:02:02.716Z,76.71
2018-11-14T04:04:30.973Z,76.59
2018-11-14T04:06:59.176Z,76.25
2018-11-14T04:09:27.495Z,76.25
2018-11-14T04:11:55.673Z,76.51
2018-11-14T04:14:23.911Z,76.35
2018-11-14T04:16:52.128Z,76.64
2018-11-14T04:19:20.508Z,76.41
2018-11-14T04:21:48.984Z,76.91
2018-11-14T04:24:17.218Z,76.67
2018-11-14T04:26:45.460Z,76.79
2018-11-14T04:29:13.685Z,76.85
2018-11-14T04:31:41.942Z,76.58
2018-11-14T04:34:10.237Z,76.80
2018-11-14T04:36:38.471Z,76.67
2018-11-14T04:39:09.169Z,76.81
2018-11-14T04:41:37.399Z,76.93
2018-11-14T04:44:06.228Z,77.18
2018-11-14T04:46:34.552Z,76.74
2018-11-14T04:49:02.846Z,77.34
2018-11-14T04:51:31.109Z,77.28
2018-11-14T04:53:59.336Z,77.21
2018-11-14T04:56:27.702Z,77.48
2018-11-14T04:58:56.003Z,77.60
2018-11-14T05:01:24.286Z,77.60
2018-11-14T05:03:52.605Z,77.52
2018-11-14T05:06:20.830Z,77.65
2018-11-14T05:08:49.120Z,77.58
2018-11-14T05:11:17.385Z,77.44
2018-11-14T05:13:45.616Z,77.57
2018-11-14T05:16:13.824Z,77.90
2018-11-14T05:18:42.108Z,77.68
2018-11-14T05:21:10.387Z,78.08
2018-11-14T05:23:38.611Z,78.26
2018-11-14T05:26:06.890Z,78.11
2018-11-14T05:28:35.097Z,77.81
2018-11-14T05:31:03.364Z,77.94
2018-11-14T05:33:31.657Z,78.01
2018-11-14T05:35:59.936Z,78.28
2018-11-14T05:38:28.203Z,78.42
2018-11-14T05:40:56.468Z,78.04
2018-11-14T05:43:24.718Z,78.46
2018-11-14T05:45:52.977Z,78.45
2018-11-14T05:48:21.252Z,78.28
2018-11-14T05:50:49.539Z,78.35
2018-11-14T05:53:17.765Z,78.39
2018-11-14T05:55:46.049Z,78.35
2018-11-14T05:58:14.329Z,78.35
2018-11-14T06:00:42.583Z,78.59
2018-11-14T06:03:10.870Z,78.50
2018-11-14T06:05:39.151Z,78.39
2018-11-14T06:08:07.387Z,78.62
2018-11-14T06:10:35.755Z,78.22
2018-11-14T06:15:57.415Z,78.35
2018-11-14T06:18:25.662Z,78.38
2018-11-14T06:20:53.901Z,78.29
2018-11-14T06:23:22.232Z,78.64
2018-11-14T06:25:50.510Z,78.71
2018-11-14T06:28:18.785Z,78.89
2018-11-14T06:30:47.072Z,78.87
2018-11-14T06:33:15.289Z,78.82
2018-11-14T06:35:43.541Z,78.28
2018-11-14T06:38:11.839Z,78.50
2018-11-14T06:40:40.083Z,78.70
2018-11-14T06:43:08.337Z,78.28
2018-11-14T06:45:36.708Z,78.49
2018-11-14T06:48:05.466Z,78.63
2018-11-14T06:50:33.787Z,78.26
2018-11-14T06:53:03.510Z,78.61
2018-11-14T06:55:31.877Z,78.99
2018-11-14T06:58:00.267Z,78.57
2018-11-14T07:00:29.863Z,78.75
2018-11-14T07:03:02.247Z,78.51
2018-11-14T07:05:30.608Z,78.74
2018-11-14T07:07:58.779Z,78.87
2018-11-14T07:10:29.408Z,78.42
2018-11-14T07:13:02.971Z,78.54
2018-11-14T07:15:31.225Z,78.34
2018-11-14T07:17:59.527Z,78.75
2018-11-14T07:20:29.203Z,78.90
2018-11-14T07:22:57.529Z,78.93
2018-11-14T07:25:25.829Z,78.80
2018-11-14T07:27:54.110Z,78.31
2018-11-14T07:30:25.549Z,78.42
2018-11-14T07:32:56.193Z,78.30
2018-11-14T07:35:24.446Z,77.81
2018-11-14T07:38:37.929Z,78.25
2018-11-14T07:41:07.785Z,79.21
2018-11-14T07:43:36.878Z,78.84
2018-11-14T07:46:05.415Z,78.75
2018-11-14T07:48:34.307Z,78.61
2018-11-14T07:51:02.959Z,78.91
2018-11-14T07:53:31.285Z,78.52
2018-11-14T07:55:59.530Z,78.77
2018-11-14T07:58:27.868Z,78.70
2018-11-14T08:01:02.610Z,79.09
2018-11-14T08:03:30.925Z,79.14
2018-11-14T08:05:59.242Z,78.66
2018-11-14T08:08:27.581Z,78.45
2018-11-14T08:10:55.840Z,78.74
2018-11-14T08:13:25.445Z,78.84
2018-11-14T08:15:55.484Z,78.97
2018-11-14T08:18:24.035Z,79.03
2018-11-14T08:20:52.327Z,78.95
2018-11-14T08:23:20.574Z,78.95
2018-11-14T08:25:49.109Z,78.99
2018-11-14T08:28:17.403Z,79.20
2018-11-14T08:30:46.286Z,79.55
2018-11-14T08:33:14.583Z,79.07
2018-11-14T08:35:42.861Z,79.24
2018-11-14T08:38:11.288Z,79.79
2018-11-14T08:40:39.634Z,79.70
2018-11-14T08:43:08.175Z,79.32
2018-11-14T08:45:36.493Z,79.41
2018-11-14T08:48:05.213Z,79.44
2018-11-14T08:50:33.485Z,79.43
2018-11-14T08:53:02.002Z,78.96
2018-11-14T08:55:30.293Z,79.04
2018-11-14T08:57:58.689Z,79.23
2018-11-14T09:00:28.018Z,79.14
2018-11-14T09:02:56.377Z,79.21
2018-11-14T09:05:24.721Z,78.91
2018-11-14T09:07:53.063Z,78.98
2018-11-14T09:10:22.573Z,79.09
2018-11-14T09:12:50.902Z,78.38
2018-11-14T09:15:20.433Z,78.55
2018-11-14T09:17:48.953Z,78.36
2018-11-14T09:20:18.672Z,78.55
2018-11-14T09:22:47.068Z,78.52
2018-11-14T09:25:22.026Z,78.58
2018-11-14T09:27:50.310Z,78.69
2018-11-14T09:30:22.027Z,78.18
2018-11-14T09:32:50.372Z,78.59
2018-11-14T09:35:19.840Z,78.26
2018-11-14T09:37:48.156Z,78.12
2018-11-14T09:40:18.207Z,78.05
2018-11-14T09:42:46.534Z,78.18
2018-11-14T09:45:16.998Z,78.31
2018-11-14T09:47:45.216Z,78.51
2018-11-14T09:50:18.689Z,78.38
2018-11-14T09:52:48.361Z,78.05
2018-11-14T09:55:16.660Z,77.87
2018-11-14T09:57:45.146Z,77.38
2018-11-14T10:00:15.682Z,77.38
2018-11-14T10:02:44.063Z,77.39
2018-11-14T10:05:15.687Z,76.65
2018-11-14T10:07:44.196Z,76.77
2018-11-14T10:10:13.759Z,76.70
2018-11-14T10:12:42.037Z,77.05
2018-11-14T10:15:13.707Z,77.26
2018-11-14T10:17:42.965Z,77.04
2018-11-14T10:23:03.860Z,76.86
2018-11-14T10:25:32.134Z,77.26
2018-11-14T10:28:00.471Z,77.31
2018-11-14T10:30:29.231Z,77.07
2018-11-14T10:32:57.455Z,76.95
2018-11-14T10:35:25.862Z,76.70
2018-11-14T10:37:54.137Z,77.22
2018-11-14T10:40:24.681Z,76.88
2018-11-14T10:42:53.052Z,77.39
2018-11-14T10:45:22.669Z,77.54
2018-11-14T10:47:51.867Z,77.30
2018-11-14T10:50:21.735Z,77.43
2018-11-14T10:52:49.993Z,77.94
2018-11-14T10:55:18.891Z,77.53
2018-11-14T10:57:47.229Z,77.63
2018-11-14T11:00:23.009Z,77.40
2018-11-14T11:02:56.629Z,78.12
2018-11-14T11:06:27.977Z,78.77
2018-11-14T11:09:01.536Z,78.51
2018-11-14T11:11:31.412Z,78.69
2018-11-14T11:14:06.576Z,78.53
2018-11-14T11:16:34.888Z,78.39
2018-11-14T11:19:03.139Z,78.36
2018-11-14T11:21:31.435Z,78.47
2018-11-14T11:23:59.676Z,78.39
2018-11-14T11:26:27.922Z,78.50
2018-11-14T11:28:56.154Z,78.54
2018-11-14T11:31:24.451Z,78.74
2018-11-14T11:33:52.726Z,78.50
2018-11-14T11:36:21.002Z,78.63
2018-11-14T11:38:49.269Z,78.48
2018-11-14T11:41:17.550Z,78.76
2018-11-14T11:43:45.807Z,78.49
2018-11-14T11:46:14.081Z,78.42
2018-11-14T11:48:42.356Z,78.52
2018-11-14T11:51:10.647Z,78.27
2018-11-14T11:53:38.826Z,78.41
2018-11-14T11:56:07.107Z,78.53
2018-11-14T11:58:35.358Z,78.50
2018-11-14T12:01:03.604Z,78.50
2018-11-14T12:03:31.913Z,78.13
2018-11-14T12:06:00.261Z,78.43
2018-11-14T12:08:28.445Z,78.31
2018-11-14T12:10:56.692Z,78.37
2018-11-14T12:13:25.011Z,78.35
2018-11-14T12:15:53.262Z,78.04
2018-11-14T12:18:21.544Z,78.25
2018-11-14T12:20:49.911Z,78.33
2018-11-14T12:23:19.066Z,78.37
2018-11-14T12:25:47.435Z,78.21
2018-11-14T12:28:15.696Z,78.49
2018-11-14T12:30:44.148Z,78.69
2018-11-14T12:33:12.417Z,78.62
2018-11-14T12:35:40.717Z,78.53
2018-11-14T12:38:09.140Z,78.55
2018-11-14T12:40:37.419Z,78.34
2018-11-14T12:43:07.671Z,77.79
2018-11-14T12:45:36.106Z,78.18
2018-11-14T12:48:04.382Z,78.10
2018-11-14T12:50:32.662Z,78.18
2018-11-14T12:53:00.914Z,78.41
2018-11-14T12:55:29.197Z,77.92
2018-11-14T12:57:57.446Z,77.72
2018-11-14T13:00:25.737Z,78.13
2018-11-14T13:02:53.992Z,78.61
2018-11-14T13:05:22.304Z,78.02
2018-11-14T13:07:50.659Z,77.70
2018-11-14T13:10:19.641Z,77.70
2018-11-14T13:12:48.974Z,77.92
2018-11-14T13:15:18.436Z,78.04
2018-11-14T13:17:46.697Z,77.59
2018-11-14T13:20:17.361Z,77.81
2018-11-14T13:22:46.062Z,78.09
2018-11-14T13:25:14.993Z,77.08
2018-11-14T13:27:44.545Z,77.48
2018-11-14T13:30:16.482Z,77.39
2018-11-14T13:32:45.563Z,77.64
2018-11-14T13:35:15.220Z,77.90
2018-11-14T13:37:44.113Z,77.77
2018-11-14T13:43:05.419Z,77.73
2018-11-14T13:48:26.853Z,77.38
2018-11-14T13:50:55.406Z,77.67
2018-11-14T13:53:23.684Z,77.42
2018-11-14T13:55:51.990Z,77.59
2018-11-14T13:58:20.270Z,77.63
2018-11-14T14:00:48.542Z,77.66
2018-11-14T14:03:16.805Z,77.79
2018-11-14T14:05:45.084Z,77.55
2018-11-14T14:08:13.363Z,77.62
2018-11-14T14:10:41.611Z,77.92
2018-11-14T14:13:09.870Z,77.77
2018-11-14T14:15:38.128Z,77.89
2018-11-14T14:18:06.570Z,78.13
2018-11-14T14:20:34.806Z,78.79
2018-11-14T14:23:03.032Z,78.21
2018-11-14T14:25:31.358Z,78.16
2018-11-14T14:27:59.584Z,78.17
2018-11-14T14:30:27.887Z,78.18
2018-11-14T14:32:56.180Z,77.79
2018-11-14T14:35:24.659Z,78.08
2018-11-14T14:37:52.915Z,78.12
2018-11-14T14:40:22.391Z,78.23
2018-11-14T14:42:50.816Z,78.27
2018-11-14T14:45:20.471Z,78.78
2018-11-14T14:47:48.775Z,78.21
2018-11-14T14:50:18.301Z,77.59
2018-11-14T14:52:46.803Z,77.98
2018-11-14T14:55:18.383Z,78.46
2018-11-14T14:57:47.137Z,78.06
2018-11-14T15:00:18.915Z,78.14
2018-11-14T15:02:47.260Z,78.23
2018-11-14T15:05:15.533Z,78.48
2018-11-14T15:07:43.979Z,78.10
2018-11-14T15:10:14.363Z,78.40
2018-11-14T15:12:42.853Z,78.04
2018-11-14T15:15:11.561Z,77.78
2018-11-14T15:17:39.887Z,77.32
2018-11-14T15:20:15.745Z,78.00
2018-11-14T15:22:44.114Z,77.64
2018-11-14T15:25:16.976Z,77.36
2018-11-14T15:27:45.995Z,77.04
2018-11-14T15:30:19.050Z,76.94
2018-11-14T15:32:47.465Z,77.42
2018-11-14T15:35:15.959Z,77.30
2018-11-14T15:40:36.892Z,76.77
2018-11-14T15:43:05.364Z,76.74
2018-11-14T15:45:33.687Z,76.99
2018-11-14T15:48:02.069Z,76.95
2018-11-14T15:50:30.968Z,77.33
2018-11-14T15:52:59.533Z,77.24
2018-11-14T15:55:27.797Z,76.99
2018-11-14T15:57:56.442Z,77.16
2018-11-14T16:00:25.938Z,77.14
2018-11-14T16:02:54.411Z,77.11
2018-11-14T16:05:23.812Z,77.17
2018-11-14T16:07:53.278Z,76.94
2018-11-14T16:10:23.033Z,77.41
2018-11-14T16:12:51.342Z,77.34
2018-11-14T16:15:22.038Z,77.51
2018-11-14T16:17:50.379Z,77.56
2018-11-14T16:20:19.969Z,77.01
2018-11-14T16:22:48.711Z,77.21
2018-11-14T16:25:18.282Z,77.00
2018-11-14T16:27:47.467Z,77.44
2018-11-14T16:30:18.057Z,76.71
2018-11-14T16:32:47.537Z,76.95
2018-11-14T16:35:15.974Z,76.76
2018-11-14T16:37:44.614Z,76.39
2018-11-14T16:40:15.123Z,76.77
2018-11-14T16:42:43.472Z,77.20
2018-11-14T16:45:12.417Z,77.05
2018-11-14T16:47:40.885Z,76.73
2018-11-14T16:50:10.674Z,76.93
2018-11-14T16:52:39.072Z,76.88
2018-11-14T16:55:08.444Z,77.45
2018-11-14T16:57:37.554Z,77.04
2018-11-14T17:00:08.794Z,77.56
2018-11-14T17:02:37.188Z,77.54
2018-11-14T17:07:58.513Z,77.09
2018-11-14T17:10:26.950Z,77.12
2018-11-14T17:12:57.615Z,77.05
2018-11-14T17:15:26.673Z,77.11
2018-11-14T17:17:54.926Z,77.34
2018-11-14T17:20:23.696Z,77.68
2018-11-14T17:22:53.062Z,77.31
2018-11-14T17:25:21.558Z,77.10
2018-11-14T17:27:50.053Z,76.92
2018-11-14T17:30:21.602Z,76.87
2018-11-14T17:32:50.100Z,77.02
2018-11-14T17:35:18.772Z,77.32
2018-11-14T17:37:47.427Z,76.58
2018-11-14T17:40:18.030Z,76.94
2018-11-14T17:42:47.206Z,76.40
2018-11-14T17:45:17.114Z,76.56
2018-11-14T17:47:45.710Z,76.70
2018-11-14T17:50:17.249Z,76.85
2018-11-14T17:52:45.737Z,76.48
2018-11-14T17:55:14.858Z,76.63
2018-11-14T17:57:43.251Z,76.93
2018-11-14T18:00:13.668Z,76.62
2018-11-14T18:02:42.904Z,77.05
2018-11-14T18:05:13.381Z,76.32
2018-11-14T18:07:42.161Z,76.43
2018-11-14T18:10:12.174Z,76.58
2018-11-14T18:12:40.830Z,76.94
2018-11-14T18:15:10.052Z,76.31
2018-11-14T18:17:39.036Z,76.48
2018-11-14T18:20:26.894Z,76.35
2018-11-14T18:22:55.385Z,76.70
2018-11-14T18:28:16.813Z,76.84
2018-11-14T18:30:45.152Z,76.91
2018-11-14T18:33:13.537Z,76.94
2018-11-14T18:35:41.976Z,76.12
2018-11-14T18:38:10.253Z,76.26
2018-11-14T18:40:38.549Z,76.11
2018-11-14T18:43:06.829Z,75.82
2018-11-14T18:45:36.055Z,76.13
2018-11-14T18:48:05.176Z,76.35
2018-11-14T18:50:33.442Z,76.04
2018-11-14T18:53:01.670Z,76.05
2018-11-14T18:55:32.317Z,76.55
2018-11-14T18:58:01.469Z,76.14
2018-11-14T19:00:30.881Z,76.51
2018-11-14T19:02:59.577Z,76.30
2018-11-14T19:05:27.951Z,76.47
2018-11-14T19:07:56.293Z,76.93
2018-11-14T19:10:25.990Z,76.47
2018-11-14T19:12:54.430Z,76.47
2018-11-14T19:15:23.905Z,76.49
2018-11-14T19:17:52.143Z,76.54
2018-11-14T19:20:21.790Z,76.28
2018-11-14T19:22:50.389Z,76.66
2018-11-14T19:25:20.061Z,76.75
2018-11-14T19:27:48.777Z,76.39
2018-11-14T19:30:18.148Z,76.70
2018-11-14T19:32:47.621Z,76.59
2018-11-14T19:35:16.131Z,76.38
2018-11-14T19:37:45.548Z,76.71
2018-11-14T19:40:16.588Z,77.25
2018-11-14T19:42:45.809Z,77.28
2018-11-14T19:45:16.351Z,77.43
2018-11-14T19:47:44.739Z,77.07
2018-11-14T19:50:14.488Z,77.40
2018-11-14T19:52:43.051Z,77.29
2018-11-14T19:55:12.717Z,76.78
2018-11-14T19:57:42.039Z,76.99
2018-11-14T20:00:22.925Z,76.84
2018-11-14T20:02:51.238Z,76.84
2018-11-14T20:05:19.943Z,77.32
2018-11-14T20:07:48.363Z,77.10
2018-11-14T20:10:18.186Z,77.19
2018-11-14T20:12:46.953Z,77.24
2018-11-14T20:15:17.772Z,77.23
2018-11-14T20:17:46.760Z,77.31
2018-11-14T20:20:17.557Z,77.20
2018-11-14T20:22:46.205Z,77.00
2018-11-14T20:25:14.493Z,77.32
2018-11-14T20:27:43.076Z,76.95
2018-11-14T20:30:13.063Z,77.33
2018-11-14T20:32:41.475Z,77.11
2018-11-14T20:35:27.817Z,76.88
2018-11-14T20:37:56.088Z,77.24
2018-11-14T20:40:24.810Z,76.88
2018-11-14T20:42:53.924Z,76.66
2018-11-14T20:45:24.332Z,77.25
2018-11-14T20:47:52.632Z,77.00
2018-11-14T20:50:22.203Z,76.92
2018-11-14T20:55:43.913Z,77.17
2018-11-14T20:58:12.193Z,77.14
2018-11-14T21:00:40.624Z,76.99
2018-11-14T21:03:09.208Z,76.96
2018-11-14T21:05:37.723Z,77.18
2018-11-14T21:08:06.574Z,77.67
2018-11-14T21:10:35.586Z,77.82
2018-11-14T21:13:04.501Z,78.04
2018-11-14T21:15:34.300Z,77.68
2018-11-14T21:18:15.184Z,77.59
2018-11-14T21:20:43.568Z,77.81
2018-11-14T21:23:11.897Z,77.59
2018-11-14T21:28:32.580Z,77.62
2018-11-14T21:31:00.878Z,77.32
2018-11-14T21:33:29.274Z,77.28
2018-11-14T21:35:57.693Z,77.16
2018-11-14T21:38:26.218Z,77.01
2018-11-14T21:40:54.512Z,77.04
2018-11-14T21:43:22.915Z,77.36
2018-11-14T21:45:51.578Z,77.57
2018-11-14T21:48:19.815Z,77.11
2018-11-14T21:50:48.160Z,76.95
2018-11-14T21:53:16.548Z,77.54
2018-11-14T21:55:44.771Z,77.49
2018-11-14T21:58:13.007Z,77.06
2018-11-14T22:00:41.853Z,76.74
2018-11-14T22:03:10.850Z,76.71
2018-11-14T22:05:39.480Z,76.66
2018-11-14T22:08:07.776Z,77.21
2018-11-14T22:10:36.061Z,76.87
2018-11-14T22:13:04.380Z,76.60
2018-11-14T22:15:32.873Z,76.39
2018-11-14T22:18:01.233Z,76.26
2018-11-14T22:20:30.234Z,76.65
2018-11-14T22:22:58.467Z,76.96
2018-11-14T22:25:27.926Z,76.74
2018-11-14T22:27:56.378Z,76.62
2018-11-14T22:30:27.528Z,76.43
2018-11-14T22:32:55.813Z,76.08
2018-11-14T22:35:25.489Z,76.47
2018-11-14T22:37:54.071Z,76.61
2018-11-14T22:40:23.604Z,75.90
2018-11-14T22:42:51.984Z,76.26
2018-11-14T22:45:22.722Z,76.05
2018-11-14T22:47:51.016Z,76.00
2018-11-14T22:50:20.869Z,75.70
2018-11-14T22:52:49.485Z,75.27
2018-11-14T22:55:19.138Z,76.21
2018-11-14T22:57:48.338Z,75.61
2018-11-14T23:00:22.813Z,75.67
2018-11-14T23:02:54.321Z,75.13
2018-11-14T23:05:22.584Z,74.97
2018-11-14T23:07:52.051Z,75.30
2018-11-14T23:10:21.248Z,75.81
2018-11-14T23:12:49.859Z,75.29
2018-11-14T23:15:18.539Z,75.49
2018-11-14T23:17:47.467Z,75.70
2018-11-14T23:20:16.416Z,75.75
2018-11-14T23:22:45.251Z,75.75
2018-11-14T23:25:14.025Z,76.26
2018-11-14T23:27:45.451Z,75.67
2018-11-14T23:30:14.877Z,75.68
2018-11-14T23:32:44.498Z,75.79
2018-11-14T23:35:17.174Z,75.59
2018-11-14T23:37:47.785Z,75.52
2018-11-14T23:40:15.992Z,75.73
2018-11-14T23:42:44.288Z,75.36
2018-11-14T23:45:13.734Z,75.43
2018-11-14T23:47:42.772Z,75.66
2018-11-14T23:50:13.673Z,75.34
2018-11-14T23:52:43.049Z,75.51
2018-11-14T23:55:11.345Z,75.55
2018-11-14T23:57:39.867Z,76.12
